Results: 2018 Fyn ITU Duathlon World Championships | 40-44 Female AG Sprint
Fyn, Denmark • 08 Jul, 2018
Pos First Name Last Name YOB Country Start
Num
Time Run T1 Bike T2 Run
1 Melisa Christian 1976 USA 2539 01:06:32 00:20:01 00:01:54 00:33:16 00:02:04 00:09:17
2 Gwen Kinsey 1974 GBR 2529 01:07:22 00:20:04 00:01:34 00:34:00 00:02:06 00:09:38
3 Marie Brush 1977 GBR 2526 01:09:56 00:20:44 00:01:47 00:35:58 00:02:06 00:09:21
4 Detlei Hasse 1978 BRA 2547 01:10:10 00:20:47 00:01:59 00:35:36 00:02:10 00:09:38
5 Geraldine Von Fintel 1976 RSA 2537 01:10:43 00:20:59 00:01:59 00:35:51 00:02:19 00:09:35
6 Martha Hall 1976 GBR 2528 01:10:55 00:20:43 00:01:47 00:36:31 00:02:20 00:09:34
7 Colette Kitterhing 1975 GBR 2530 01:11:29 00:21:12 00:01:51 00:35:52 00:02:37 00:09:57
8 Stefania Baldi 1975 ITA 2534 01:13:09 00:23:00 00:02:06 00:35:25 00:02:22 00:10:16
9 Jamii North 1977 USA 2541 01:13:22 00:23:18 00:02:02 00:35:16 00:02:26 00:10:20
10 Kimberly Landry 1978 CAN 2549 01:13:41 00:23:15 00:01:58 00:35:14 00:02:11 00:11:03
11 Laura Epelbaum 1978 USA 2540 01:13:54 00:23:31 00:02:08 00:34:59 00:02:43 00:10:33
12 Catherina Simones 1976 USA 2544 01:13:58 00:22:11 00:02:01 00:36:22 00:02:40 00:10:44
13 Sarah Burns 1976 GBR 2527 01:14:54 00:24:31 00:02:02 00:34:18 00:02:45 00:11:18
14 Kate Slee 1976 GBR 2531 01:15:08 00:24:14 00:01:54 00:34:48 00:02:28 00:11:44
15 Claire Ludlow 1975 IRL 2533 01:15:23 00:24:17 00:01:50 00:34:54 00:02:39 00:11:43
16 Maya Bryson 1975 USA 2538 01:17:45 00:24:16 00:01:59 00:37:33 00:02:34 00:11:23
17 Sandra Morawitz 1977 GER 2532 01:18:27 00:25:02 00:02:02 00:37:23 00:02:37 00:11:23
18 Ana Guillermina Ruiz Castillo 1977 MEX 2535 01:20:21 00:24:37 00:02:02 00:40:04 00:02:23 00:11:15
19 Micaela Birmingham 1976 CAN 2548 01:21:47 00:25:20 00:01:53 00:38:15 00:03:27 00:12:52
20 Carolina Diaz 1975 NZL 2536 01:22:09 00:27:48 00:01:57 00:37:35 00:02:52 00:11:57
21 Jadie Simon 1978 USA 2543 01:24:39 00:26:55 00:02:21 00:39:18 00:02:56 00:13:09
22 Elizabeth Sylves 1977 USA 2545 01:26:34 00:28:31 00:02:10 00:39:05 00:03:08 00:13:40
23 Heike Studler 1974 AUT 2546 01:28:13 00:26:06 00:02:30 00:44:00 00:02:56 00:12:41
24 Sridevi Parise 1978 USA 2542 01:42:05 00:30:42 00:03:42 00:48:51 00:04:08 00:14:42
Program notes:

Technical Delegate: Duncan Hough/GBR. Head Referee: Ulf Schuetze/CAN.
Competition Jury: Duncan Hough/GBR, Brian Hinton/AUS, Morten Fenger/DEN.
Distances: Run 5.5km (3 laps), Bike 19.9km (1 lap), Run 2.5km (1 lap)
Air temperature: 16.6C; Humidity: 52.7%